Time;durP1;ratioP1;P1;durP2;ratioP2;P2;SDS_P1;SDS_P2;PMS_P1;PMS_P2;Temp;Humidity;BMP_temperature;BMP_pressure;BME280_temperature;BME280_humidity;BME280_pressure;Samples;Min_cycle;Max_cycle;Signal;HPM_P1;HPM_P2
2021/06/24 00:01:35;;;;;;;17.37;15.73;;;18.50;99.90;;;;;;4917566;29;20246;-58
2021/06/24 00:04:01;;;;;;;20.10;18.20;;;18.50;99.90;;;;;;4918793;29;20585;-53
2021/06/24 00:06:26;;;;;;;19.60;17.80;;;18.40;99.90;;;;;;4920908;29;20183;-58
2021/06/24 00:08:52;;;;;;;19.73;17.73;;;18.30;99.90;;;;;;4920882;29;20449;-59
2021/06/24 00:11:18;;;;;;;21.97;19.80;;;18.20;99.90;;;;;;4919971;29;20227;-59
2021/06/24 00:13:44;;;;;;;21.07;18.90;;;18.10;99.90;;;;;;4924396;29;20414;-58
2021/06/24 00:16:10;;;;;;;20.27;18.47;;;18.10;99.90;;;;;;4920933;29;20190;-58
2021/06/24 00:18:36;;;;;;;21.40;19.20;;;18.10;99.90;;;;;;4917540;29;20233;-59
2021/06/24 00:21:02;;;;;;;21.70;19.70;;;18.10;99.90;;;;;;4918251;29;20443;-58
2021/06/24 00:23:27;;;;;;;22.97;20.70;;;18.00;99.90;;;;;;4916478;29;20534;-58
2021/06/24 00:25:53;;;;;;;23.10;20.90;;;17.90;99.90;;;;;;4923699;29;20438;-59
2021/06/24 00:28:19;;;;;;;25.20;22.70;;;17.90;99.90;;;;;;4918443;29;20266;-58
2021/06/24 00:30:47;;;;;;;26.10;23.70;;;17.80;99.90;;;;;;4917647;29;20202;-59
2021/06/24 00:33:13;;;;;;;26.20;23.80;;;17.80;99.90;;;;;;4919041;29;20203;-59
2021/06/24 00:35:39;;;;;;;26.27;23.57;;;17.80;99.90;;;;;;4916331;29;20442;-58
2021/06/24 00:38:05;;;;;;;26.30;23.47;;;17.70;99.90;;;;;;4922175;29;21247;-59
2021/06/24 00:40:34;;;;;;;24.17;21.63;;;17.70;99.90;;;;;;4915893;29;20216;-59
2021/06/24 00:43:01;;;;;;;24.10;21.77;;;17.70;99.90;;;;;;4928953;29;20563;-59
2021/06/24 00:45:27;;;;;;;23.57;21.30;;;17.70;99.90;;;;;;4926916;29;20971;-59
2021/06/24 00:47:52;;;;;;;24.67;22.23;;;17.60;99.90;;;;;;4928700;29;20580;-59
2021/06/24 00:50:18;;;;;;;23.00;20.80;;;17.60;99.90;;;;;;4916460;29;20608;-59
2021/06/24 00:52:44;;;;;;;23.97;21.57;;;17.50;99.90;;;;;;4921547;29;20185;-59
2021/06/24 00:55:10;;;;;;;24.60;22.20;;;17.50;99.90;;;;;;4933901;29;20308;-59
2021/06/24 00:57:36;;;;;;;22.90;20.50;;;17.50;99.90;;;;;;4932843;29;20185;-59
2021/06/24 01:00:07;;;;;;;24.07;21.70;;;17.40;99.90;;;;;;4925145;29;20506;-59
2021/06/24 01:02:33;;;;;;;25.37;22.70;;;17.40;99.90;;;;;;4899826;29;20528;-59
2021/06/24 01:04:59;;;;;;;24.17;21.57;;;17.40;99.90;;;;;;4927804;29;20540;-59
2021/06/24 01:07:25;;;;;;;25.80;23.30;;;17.40;99.90;;;;;;4934075;29;20185;-59
2021/06/24 01:09:51;;;;;;;24.90;22.43;;;17.40;99.90;;;;;;4936769;29;20564;-59
2021/06/24 01:12:17;;;;;;;23.07;20.87;;;17.40;99.90;;;;;;4903244;29;20458;-59
2021/06/24 01:14:42;;;;;;;26.20;21.63;;;17.30;99.90;;;;;;4935844;29;20448;-59
2021/06/24 01:17:08;;;;;;;22.77;20.50;;;17.40;99.90;;;;;;4920117;29;20437;-59
2021/06/24 01:19:34;;;;;;;23.70;21.27;;;17.30;99.90;;;;;;4932345;29;20225;-59
2021/06/24 01:22:00;;;;;;;22.47;20.07;;;17.20;99.90;;;;;;4935240;29;20189;-59
2021/06/24 01:24:26;;;;;;;22.20;19.97;;;17.20;99.90;;;;;;4921339;29;20928;-60
2021/06/24 01:26:52;;;;;;;21.60;19.60;;;17.10;99.90;;;;;;4923262;29;20189;-59
2021/06/24 01:29:17;;;;;;;21.13;18.23;;;17.00;99.90;;;;;;4926748;29;20461;-59
2021/06/24 01:31:43;;;;;;;22.33;20.10;;;17.00;99.90;;;;;;4924862;29;20244;-59
2021/06/24 01:34:11;;;;;;;23.23;20.73;;;16.90;99.90;;;;;;4921770;29;20193;-59
2021/06/24 01:36:38;;;;;;;22.23;20.13;;;16.80;99.90;;;;;;4921511;29;20669;-59
2021/06/24 01:39:07;;;;;;;22.87;20.57;;;16.80;99.90;;;;;;4920121;29;20503;-59
2021/06/24 01:41:32;;;;;;;21.17;19.07;;;16.70;99.90;;;;;;4919813;29;20452;-59
2021/06/24 01:43:58;;;;;;;21.53;19.10;;;16.70;99.90;;;;;;4931901;29;20768;-59
2021/06/24 01:46:24;;;;;;;22.10;19.97;;;16.70;99.90;;;;;;4916983;29;20201;-59
2021/06/24 01:48:49;;;;;;;21.10;19.00;;;16.70;99.90;;;;;;4923080;29;21085;-59
2021/06/24 01:51:16;;;;;;;22.30;20.07;;;16.60;99.90;;;;;;4923102;29;20274;-59
2021/06/24 01:53:42;;;;;;;22.13;19.80;;;16.60;99.90;;;;;;4932588;29;20200;-59
2021/06/24 01:56:08;;;;;;;23.27;20.97;;;16.60;99.90;;;;;;4924444;29;20799;-59
2021/06/24 01:58:35;;;;;;;22.53;20.20;;;16.60;99.90;;;;;;4934229;29;20200;-58
2021/06/24 02:01:01;;;;;;;21.93;19.70;;;16.60;99.90;;;;;;4927666;29;20814;-59
2021/06/24 02:03:27;;;;;;;22.03;19.33;;;16.70;99.90;;;;;;4919827;29;20549;-57
2021/06/24 02:05:55;;;;;;;22.37;20.07;;;16.60;99.90;;;;;;4915774;29;20525;-59
2021/06/24 02:08:24;;;;;;;22.80;20.40;;;16.60;99.90;;;;;;4923242;29;20194;-58
2021/06/24 02:10:50;;;;;;;23.77;19.97;;;16.60;99.90;;;;;;4942190;29;20449;-59
2021/06/24 02:13:16;;;;;;;22.23;19.37;;;16.60;99.90;;;;;;4927289;29;20449;-58
2021/06/24 02:15:42;;;;;;;23.00;20.70;;;16.50;99.90;;;;;;4920230;29;20446;-58
2021/06/24 02:18:09;;;;;;;22.80;20.60;;;16.50;99.90;;;;;;4933079;29;20485;-59
2021/06/24 02:20:35;;;;;;;25.67;21.30;;;16.50;99.90;;;;;;4934951;29;20472;-58
2021/06/24 02:23:01;;;;;;;25.37;22.80;;;16.60;99.90;;;;;;4921319;29;20515;-58
2021/06/24 02:25:27;;;;;;;24.33;21.83;;;16.60;99.90;;;;;;4916697;29;20448;-58
2021/06/24 02:27:53;;;;;;;23.13;20.73;;;16.60;99.90;;;;;;4915615;29;20245;-59
2021/06/24 02:30:19;;;;;;;23.97;21.63;;;16.60;99.90;;;;;;4917172;29;20469;-59
2021/06/24 02:32:45;;;;;;;23.63;21.13;;;16.60;99.90;;;;;;4921074;29;20458;-59
2021/06/24 02:35:13;;;;;;;24.80;21.73;;;16.60;99.90;;;;;;4927452;29;20932;-59
2021/06/24 02:37:40;;;;;;;24.30;21.77;;;16.60;99.90;;;;;;4916308;29;20197;-59
2021/06/24 02:40:07;;;;;;;24.30;21.73;;;16.60;99.90;;;;;;4921917;29;20468;-58
2021/06/24 02:42:33;;;;;;;23.60;21.10;;;16.60;99.90;;;;;;4916843;29;20447;-59
2021/06/24 02:44:59;;;;;;;22.87;20.20;;;16.60;99.90;;;;;;4914133;29;20909;-58
2021/06/24 02:47:25;;;;;;;23.73;20.47;;;16.60;99.90;;;;;;4917825;29;20516;-57
2021/06/24 02:49:50;;;;;;;23.33;20.80;;;16.60;99.90;;;;;;4914242;29;20215;-58
2021/06/24 02:52:16;;;;;;;24.10;21.47;;;16.50;99.90;;;;;;4921076;29;20873;-57
2021/06/24 02:54:41;;;;;;;25.67;21.27;;;16.40;99.90;;;;;;4914010;29;20194;-59
2021/06/24 02:57:07;;;;;;;22.60;20.30;;;16.40;99.90;;;;;;4915441;29;20246;-59
2021/06/24 02:59:33;;;;;;;23.90;21.40;;;16.50;99.90;;;;;;4923326;29;20668;-58
2021/06/24 03:01:58;;;;;;;23.20;20.83;;;16.40;99.90;;;;;;4914000;29;20209;-59
2021/06/24 03:04:24;;;;;;;23.23;20.93;;;16.40;99.90;;;;;;4915208;29;20585;-59
2021/06/24 03:06:50;;;;;;;24.03;21.43;;;16.40;99.90;;;;;;4905960;29;20191;-58
2021/06/24 03:09:16;;;;;;;23.20;20.70;;;16.30;99.90;;;;;;4913748;29;20597;-59
2021/06/24 03:11:42;;;;;;;24.60;22.00;;;16.30;99.90;;;;;;4914668;29;20428;-58
2021/06/24 03:14:08;;;;;;;23.00;20.73;;;16.30;99.90;;;;;;4913246;29;20446;-58
2021/06/24 03:16:34;;;;;;;23.90;21.40;;;16.30;99.90;;;;;;4913769;29;20196;-59
2021/06/24 03:19:00;;;;;;;23.63;21.33;;;16.40;99.90;;;;;;4915544;29;20480;-59
2021/06/24 03:21:25;;;;;;;24.17;21.57;;;16.40;99.90;;;;;;4914081;29;20679;-59
2021/06/24 03:23:51;;;;;;;24.57;22.03;;;16.40;99.90;;;;;;4914208;29;20532;-59
2021/06/24 03:26:17;;;;;;;25.60;22.80;;;16.40;99.90;;;;;;4923973;29;20195;-59
2021/06/24 03:28:43;;;;;;;23.63;21.43;;;16.40;99.90;;;;;;4905349;29;20212;-59
2021/06/24 03:31:10;;;;;;;26.00;21.70;;;16.40;99.90;;;;;;4915300;29;20646;-59
2021/06/24 03:33:35;;;;;;;23.93;21.47;;;16.40;99.90;;;;;;4917383;29;20460;-59
2021/06/24 03:36:01;;;;;;;24.70;22.10;;;16.40;99.90;;;;;;4915668;29;20444;-59
2021/06/24 03:38:27;;;;;;;24.43;21.67;;;16.40;99.90;;;;;;4915515;29;20224;-59
2021/06/24 03:40:52;;;;;;;24.07;21.73;;;16.40;99.90;;;;;;4921143;29;20498;-59
2021/06/24 03:43:18;;;;;;;24.93;21.60;;;16.40;99.90;;;;;;4918205;29;20195;-58
2021/06/24 03:45:43;;;;;;;23.40;20.73;;;16.40;99.90;;;;;;4924343;29;20185;-57
2021/06/24 03:48:10;;;;;;;24.53;21.97;;;16.40;99.90;;;;;;4920307;29;20268;-58
2021/06/24 03:50:36;;;;;;;23.33;21.03;;;16.40;99.90;;;;;;4913646;29;20198;-58
2021/06/24 03:53:03;;;;;;;24.03;21.60;;;16.40;99.90;;;;;;4915447;29;20449;-58
2021/06/24 03:55:40;;;;;;;24.37;21.80;;;16.40;99.90;;;;;;4914049;29;20494;-59
2021/06/24 03:58:07;;;;;;;23.97;21.60;;;16.40;99.90;;;;;;4919134;29;20448;-58
2021/06/24 04:00:38;;;;;;;22.70;20.30;;;16.50;99.90;;;;;;4911987;29;20492;-58
2021/06/24 04:03:04;;;;;;;24.03;21.60;;;16.50;99.90;;;;;;4916455;29;20444;-59
2021/06/24 04:05:33;;;;;;;23.90;20.83;;;16.50;99.90;;;;;;4919081;29;20887;-57
2021/06/24 04:07:59;;;;;;;21.93;19.80;;;16.40;99.90;;;;;;4920751;29;20511;-57
2021/06/24 04:10:26;;;;;;;23.50;21.23;;;16.50;99.90;;;;;;4917450;29;21390;-58
2021/06/24 04:12:51;;;;;;;22.30;20.00;;;16.50;99.90;;;;;;4912265;29;20821;-59
2021/06/24 04:15:17;;;;;;;20.87;18.80;;;16.40;99.90;;;;;;4918016;29;20474;-57
2021/06/24 04:17:43;;;;;;;22.23;19.93;;;16.40;99.90;;;;;;4921767;29;20193;-58
2021/06/24 04:20:09;;;;;;;23.13;20.87;;;16.50;99.90;;;;;;4910749;29;20473;-58
2021/06/24 04:22:35;;;;;;;25.50;21.30;;;16.50;99.90;;;;;;4908583;29;20193;-57
2021/06/24 04:25:00;;;;;;;24.53;21.57;;;16.50;99.90;;;;;;4913712;29;21189;-58
2021/06/24 04:27:26;;;;;;;24.60;22.07;;;16.60;99.90;;;;;;4921866;29;20193;-55
2021/06/24 04:29:51;;;;;;;24.43;22.07;;;16.60;99.90;;;;;;4919991;29;20207;-58
2021/06/24 04:32:17;;;;;;;25.53;21.30;;;16.60;99.90;;;;;;4912700;29;20209;-56
2021/06/24 04:34:42;;;;;;;22.70;19.20;;;16.70;99.90;;;;;;4912419;29;20194;-58
2021/06/24 04:37:08;;;;;;;23.40;20.90;;;16.70;99.90;;;;;;4929200;29;20202;-58
2021/06/24 04:39:33;;;;;;;23.57;20.90;;;16.70;99.90;;;;;;4921534;29;20209;-58
2021/06/24 04:41:59;;;;;;;23.17;20.80;;;16.60;99.90;;;;;;4924423;29;20204;-58
2021/06/24 04:44:25;;;;;;;23.97;21.13;;;16.70;99.90;;;;;;4922712;29;20965;-57
2021/06/24 04:46:50;;;;;;;23.77;21.27;;;16.70;99.90;;;;;;4920421;29;20181;-57
2021/06/24 04:49:17;;;;;;;25.73;23.03;;;16.70;99.90;;;;;;4915567;29;20517;-56
2021/06/24 04:51:43;;;;;;;28.80;22.80;;;16.70;99.90;;;;;;4915340;29;20190;-57
2021/06/24 04:54:08;;;;;;;24.53;22.13;;;16.80;99.90;;;;;;4916046;29;20429;-58
2021/06/24 04:56:34;;;;;;;24.37;21.87;;;16.80;99.90;;;;;;4917942;29;20645;-57
2021/06/24 04:58:59;;;;;;;24.60;22.13;;;16.90;99.90;;;;;;4923123;29;20213;-57
2021/06/24 05:01:25;;;;;;;23.43;21.03;;;16.90;99.90;;;;;;4915893;29;20218;-57
2021/06/24 05:03:51;;;;;;;23.50;21.10;;;16.90;99.90;;;;;;4923282;29;20182;-58
2021/06/24 05:06:16;;;;;;;24.70;22.20;;;17.00;99.90;;;;;;4923189;29;20253;-57
2021/06/24 05:08:42;;;;;;;24.73;22.23;;;17.00;99.90;;;;;;4915944;29;20544;-58
2021/06/24 05:11:08;;;;;;;22.47;20.37;;;17.10;99.90;;;;;;4915799;29;20483;-57
2021/06/24 05:13:34;;;;;;;22.07;19.97;;;17.00;99.90;;;;;;4915748;29;20189;-58
2021/06/24 05:16:00;;;;;;;23.67;21.40;;;17.10;99.90;;;;;;4918408;29;20226;-57
2021/06/24 05:18:26;;;;;;;23.90;21.60;;;17.10;99.90;;;;;;4922068;29;20592;-57
2021/06/24 05:20:52;;;;;;;24.27;22.07;;;17.20;99.90;;;;;;4921931;29;20528;-58
2021/06/24 05:23:18;;;;;;;21.07;19.20;;;17.10;99.90;;;;;;4924707;29;20418;-58
2021/06/24 05:25:45;;;;;;;24.00;21.50;;;17.10;99.90;;;;;;4922889;29;20220;-58
2021/06/24 05:28:11;;;;;;;23.43;21.13;;;17.20;99.90;;;;;;4923507;29;20440;-57
2021/06/24 05:30:37;;;;;;;23.97;21.57;;;17.10;99.90;;;;;;4933561;29;20444;-57
2021/06/24 05:33:05;;;;;;;22.23;19.80;;;17.10;99.90;;;;;;4916345;29;20208;-58
2021/06/24 05:35:31;;;;;;;26.13;20.20;;;17.10;99.90;;;;;;4929928;29;20925;-57
2021/06/24 05:37:56;;;;;;;23.73;21.40;;;17.10;99.90;;;;;;4914737;29;20482;-57
2021/06/24 05:40:22;;;;;;;24.07;21.57;;;17.00;99.90;;;;;;4917249;29;20275;-57
2021/06/24 05:42:49;;;;;;;22.83;20.43;;;17.00;99.90;;;;;;4934089;29;20726;-56
2021/06/24 05:45:14;;;;;;;23.07;20.77;;;17.00;99.90;;;;;;4934268;29;20428;-57
2021/06/24 05:47:40;;;;;;;24.60;22.00;;;17.00;99.90;;;;;;4917934;29;20500;-56
2021/06/24 05:50:06;;;;;;;24.47;21.93;;;17.00;99.90;;;;;;4923216;29;20293;-57
2021/06/24 05:52:32;;;;;;;24.00;21.13;;;17.00;99.90;;;;;;4918422;29;20453;-58
2021/06/24 05:54:58;;;;;;;24.50;21.17;;;17.00;99.90;;;;;;4920393;29;20436;-56
2021/06/24 05:57:25;;;;;;;25.23;22.77;;;17.00;99.90;;;;;;4921964;29;20198;-57
2021/06/24 05:59:50;;;;;;;23.30;21.10;;;17.00;99.90;;;;;;4918810;29;20225;-58
2021/06/24 06:02:16;;;;;;;24.10;21.57;;;17.10;99.90;;;;;;4917919;29;20504;-58
2021/06/24 06:04:41;;;;;;;23.87;21.67;;;17.20;99.90;;;;;;4917587;29;20198;-58
2021/06/24 06:07:07;;;;;;;25.93;22.40;;;17.30;99.90;;;;;;4921799;29;20196;-58
2021/06/24 06:09:35;;;;;;;25.07;22.57;;;17.20;99.90;;;;;;4917238;29;20194;-58
2021/06/24 06:12:02;;;;;;;27.50;23.17;;;17.20;99.90;;;;;;4933150;29;20225;-57
2021/06/24 06:14:27;;;;;;;27.90;22.27;;;17.30;99.90;;;;;;4922578;29;20916;-58
2021/06/24 06:16:53;;;;;;;24.60;22.30;;;17.40;99.90;;;;;;4933343;29;20429;-58
2021/06/24 06:19:19;;;;;;;26.27;23.47;;;17.50;99.90;;;;;;4932577;29;20240;-58
2021/06/24 06:21:44;;;;;;;27.17;23.60;;;17.50;99.90;;;;;;4931719;29;20190;-58
2021/06/24 06:24:10;;;;;;;26.07;23.37;;;17.60;99.90;;;;;;4932983;29;20205;-58
2021/06/24 06:26:35;;;;;;;25.23;22.70;;;17.60;99.90;;;;;;4932646;29;20237;-58
2021/06/24 06:29:04;;;;;;;26.40;23.60;;;17.70;99.90;;;;;;4910526;29;20190;-58
2021/06/24 06:31:32;;;;;;;26.90;24.20;;;17.80;99.90;;;;;;4928134;29;20290;-58
2021/06/24 06:33:58;;;;;;;27.10;24.40;;;17.90;99.90;;;;;;4931647;29;20534;-57
2021/06/24 06:36:23;;;;;;;27.93;25.10;;;18.00;99.90;;;;;;4913012;29;20515;-58
2021/06/24 06:38:49;;;;;;;25.67;23.10;;;18.00;99.90;;;;;;4912476;29;20255;-57
2021/06/24 06:41:14;;;;;;;28.67;25.70;;;18.20;99.90;;;;;;4914279;29;20258;-60
2021/06/24 06:43:40;;;;;;;27.80;24.87;;;18.30;99.90;;;;;;4913381;29;20285;-58
2021/06/24 06:46:05;;;;;;;27.87;25.17;;;18.30;99.90;;;;;;4914184;29;20932;-59
2021/06/24 06:48:31;;;;;;;28.07;25.07;;;18.40;99.90;;;;;;4917173;29;20288;-58
2021/06/24 06:50:57;;;;;;;27.43;24.63;;;18.40;99.90;;;;;;4913213;29;20193;-58
2021/06/24 06:53:23;;;;;;;29.03;25.17;;;18.40;99.90;;;;;;4916245;29;20195;-59
2021/06/24 06:55:49;;;;;;;29.20;26.10;;;18.40;99.90;;;;;;4916202;29;20218;-58
2021/06/24 06:58:15;;;;;;;30.20;27.10;;;18.50;99.90;;;;;;4917788;29;20462;-57
2021/06/24 07:00:40;;;;;;;28.10;25.30;;;18.70;99.90;;;;;;4922364;29;20229;-59
2021/06/24 07:03:06;;;;;;;28.13;25.23;;;18.80;99.90;;;;;;4917647;29;20277;-59
2021/06/24 07:05:32;;;;;;;26.33;23.73;;;18.90;99.90;;;;;;4921213;29;20221;-60
2021/06/24 07:07:58;;;;;;;28.90;26.00;;;19.00;94.20;;;;;;4918571;29;20914;-59
2021/06/24 07:10:24;;;;;;;28.73;25.90;;;19.10;96.90;;;;;;4917353;29;20437;-59
2021/06/24 07:12:50;;;;;;;30.20;27.10;;;19.10;93.20;;;;;;4912581;29;20294;-59
2021/06/24 07:15:16;;;;;;;27.77;25.07;;;19.00;97.30;;;;;;4912480;29;20524;-59
2021/06/24 07:17:42;;;;;;;29.30;26.40;;;19.20;99.90;;;;;;4912807;29;20446;-59
2021/06/24 07:20:09;;;;;;;30.37;27.37;;;19.30;68.30;;;;;;4911781;29;21048;-58
2021/06/24 07:22:34;;;;;;;30.33;27.33;;;19.30;55.10;;;;;;4913485;29;20225;-59
2021/06/24 07:25:00;;;;;;;30.47;27.37;;;19.20;59.20;;;;;;4912303;29;20426;-59
2021/06/24 07:27:26;;;;;;;30.13;27.13;;;19.10;69.80;;;;;;4912879;29;20195;-59
2021/06/24 07:29:51;;;;;;;28.90;26.00;;;19.10;89.70;;;;;;4922001;29;20261;-58
2021/06/24 07:32:18;;;;;;;28.80;26.20;;;19.00;91.00;;;;;;4912100;29;20713;-58
2021/06/24 07:34:44;;;;;;;28.67;25.97;;;19.10;88.80;;;;;;4912532;29;20557;-59
2021/06/24 07:37:10;;;;;;;29.47;26.47;;;19.10;71.70;;;;;;4912575;29;20482;-59
2021/06/24 07:39:35;;;;;;;29.03;26.03;;;19.20;84.20;;;;;;4911801;29;20421;-59
2021/06/24 07:42:01;;;;;;;28.43;25.47;;;19.30;57.60;;;;;;4912134;29;20701;-59
2021/06/24 07:44:26;;;;;;;27.47;24.87;;;19.40;44.50;;;;;;4915380;29;20264;-58
2021/06/24 07:46:52;;;;;;;27.27;24.67;;;19.40;57.10;;;;;;4912036;29;20729;-59
2021/06/24 07:49:17;;;;;;;28.30;25.50;;;19.40;62.20;;;;;;4912326;29;20225;-59
2021/06/24 07:51:43;;;;;;;28.93;25.90;;;19.50;37.60;;;;;;4911896;29;20205;-59
2021/06/24 07:54:09;;;;;;;27.77;25.17;;;19.40;49.70;;;;;;4912175;29;20202;-59
2021/06/24 07:56:34;;;;;;;27.43;24.73;;;19.30;64.80;;;;;;4911495;29;20200;-59
2021/06/24 07:59:00;;;;;;;27.00;24.30;;;19.30;77.60;;;;;;4912073;29;20210;-59
2021/06/24 08:01:25;;;;;;;26.50;24.03;;;19.40;76.20;;;;;;4913241;29;20332;-59
2021/06/24 08:03:52;;;;;;;27.57;24.67;;;19.60;80.40;;;;;;4912247;29;20200;-59
2021/06/24 08:06:18;;;;;;;28.30;25.43;;;19.90;76.40;;;;;;4912497;29;20192;-59
2021/06/24 08:08:44;;;;;;;28.00;25.17;;;20.10;56.90;;;;;;4913135;29;20426;-59
2021/06/24 08:11:09;;;;;;;28.63;25.73;;;20.30;50.70;;;;;;4913513;29;20659;-59
2021/06/24 08:13:35;;;;;;;26.60;24.20;;;20.40;47.50;;;;;;4914310;29;20654;-59
2021/06/24 08:16:01;;;;;;;28.73;25.90;;;20.40;33.80;;;;;;4916082;29;20555;-59
2021/06/24 08:18:26;;;;;;;27.37;24.80;;;20.50;29.10;;;;;;4916398;29;20470;-59
2021/06/24 08:20:52;;;;;;;25.50;23.00;;;20.30;31.60;;;;;;4915008;29;20281;-59
2021/06/24 08:23:19;;;;;;;26.20;23.80;;;20.20;38.40;;;;;;4916254;29;20649;-59
2021/06/24 08:25:45;;;;;;;28.20;25.70;;;20.20;48.40;;;;;;4915290;29;20261;-59
2021/06/24 08:28:11;;;;;;;26.47;24.07;;;20.20;31.50;;;;;;4922198;29;20421;-58
2021/06/24 08:30:41;;;;;;;29.07;26.17;;;20.30;25.80;;;;;;4916432;29;20475;-59
2021/06/24 08:33:08;;;;;;;26.70;24.00;;;20.20;21.10;;;;;;4915557;29;20426;-58
2021/06/24 08:35:33;;;;;;;28.40;25.70;;;20.20;19.60;;;;;;4915880;29;20438;-55
2021/06/24 08:37:59;;;;;;;28.43;25.63;;;20.00;26.20;;;;;;4918939;29;20443;-59
2021/06/24 08:40:25;;;;;;;27.53;24.90;;;19.90;33.80;;;;;;4918065;29;20210;-59
2021/06/24 08:42:51;;;;;;;27.37;24.87;;;20.10;30.90;;;;;;4918472;29;20281;-59
2021/06/24 08:45:17;;;;;;;27.40;24.70;;;20.20;17.50;;;;;;4915420;29;20538;-58
2021/06/24 08:47:47;;;;;;;26.67;24.07;;;20.10;25.50;;;;;;4915415;29;20196;-58
2021/06/24 08:50:16;;;;;;;29.27;26.47;;;20.00;33.70;;;;;;4918165;29;20190;-59
2021/06/24 08:52:45;;;;;;;27.20;24.70;;;19.90;35.20;;;;;;4899367;29;20440;-59
2021/06/24 08:55:11;;;;;;;28.53;25.60;;;20.00;50.00;;;;;;4918392;29;20484;-58
2021/06/24 08:57:37;;;;;;;28.30;25.63;;;20.10;43.50;;;;;;4920035;29;20462;-58
2021/06/24 09:00:05;;;;;;;26.87;24.27;;;20.20;45.50;;;;;;4916544;29;21121;-59
2021/06/24 09:02:42;;;;;;;27.27;24.70;;;20.20;57.60;;;;;;4929194;29;20194;-59
2021/06/24 09:05:10;;;;;;;28.97;26.40;;;20.30;45.20;;;;;;4927981;29;21028;-58
2021/06/24 09:07:50;;;;;;;27.07;24.57;;;20.70;24.50;;;;;;4919690;29;20472;-59
2021/06/24 09:10:16;;;;;;;28.00;25.40;;;21.00;24.60;;;;;;4915226;29;20427;-58
2021/06/24 09:12:54;;;;;;;27.60;25.00;;;21.30;1.00;;;;;;4921924;29;21021;-59
2021/06/24 09:15:21;;;;;;;26.20;23.83;;;21.60;1.00;;;;;;4929327;29;20445;-58
2021/06/24 09:17:47;;;;;;;26.57;24.33;;;21.80;1.00;;;;;;4931308;29;20453;-60
2021/06/24 09:20:18;;;;;;;28.53;25.70;;;22.20;1.00;;;;;;4918448;29;20466;-58
2021/06/24 09:23:07;;;;;;;27.93;25.40;;;22.30;1.00;;;;;;4915002;29;20965;-60
2021/06/24 09:25:34;;;;;;;28.07;25.57;;;22.30;1.00;;;;;;4920435;29;20996;-59
2021/06/24 09:27:59;;;;;;;26.97;24.67;;;22.40;1.00;;;;;;4921645;29;20952;-59
2021/06/24 09:30:30;;;;;;;27.40;25.10;;;22.40;1.00;;;;;;4920686;29;20432;-57
2021/06/24 09:32:56;;;;;;;28.40;25.90;;;22.10;1.00;;;;;;4931221;29;20190;-58
2021/06/24 09:35:24;;;;;;;28.27;25.80;;;22.00;1.00;;;;;;4918637;29;20438;-56
2021/06/24 09:38:10;;;;;;;29.50;26.80;;;22.10;1.00;;;;;;4924464;29;20195;-57
2021/06/24 09:40:56;;;;;;;25.93;23.73;;;22.30;1.00;;;;;;4921221;29;20466;-57
2021/06/24 09:43:22;;;;;;;27.70;25.40;;;22.60;1.00;;;;;;4915004;29;20431;-57
2021/06/24 09:46:09;;;;;;;26.20;23.90;;;23.10;1.00;;;;;;4914073;29;20929;-58
2021/06/24 09:48:57;;;;;;;26.50;24.20;;;23.50;1.00;;;;;;4915232;29;20269;-57
2021/06/24 09:51:29;;;;;;;27.67;25.00;;;23.60;1.00;;;;;;4933055;29;20936;-57
2021/06/24 09:53:58;;;;;;;26.20;24.00;;;23.80;1.00;;;;;;4921974;29;20430;-58
2021/06/24 09:56:32;;;;;;;26.77;24.47;;;23.90;1.00;;;;;;4924555;29;20512;-55
2021/06/24 09:59:05;;;;;;;25.47;23.37;;;23.80;1.00;;;;;;4916647;29;20518;-58
2021/06/24 10:01:38;;;;;;;25.13;23.17;;;23.80;1.00;;;;;;4914174;29;20513;-59
2021/06/24 10:04:29;;;;;;;25.53;23.40;;;23.90;1.00;;;;;;4913813;29;20513;-54
2021/06/24 10:06:56;;;;;;;25.53;23.43;;;23.70;1.00;;;;;;4918857;29;20427;-57
2021/06/24 10:09:24;;;;;;;24.40;22.40;;;23.50;1.00;;;;;;4912056;29;20454;-57
2021/06/24 10:11:50;;;;;;;25.20;23.00;;;23.20;1.00;;;;;;4914106;29;21102;-56
2021/06/24 10:14:16;;;;;;;26.07;23.97;;;22.90;1.00;;;;;;4923887;29;20555;-57
2021/06/24 10:16:52;;;;;;;25.27;23.07;;;22.70;1.00;;;;;;4912728;29;20434;-56
2021/06/24 10:19:27;;;;;;;24.10;22.10;;;22.60;1.00;;;;;;4921997;29;20536;-56
2021/06/24 10:22:17;;;;;;;25.97;23.37;;;22.40;1.00;;;;;;4925738;29;20916;-55
2021/06/24 10:24:53;;;;;;;26.20;23.97;;;22.30;1.00;;;;;;4913889;29;20414;-56
2021/06/24 10:27:21;;;;;;;23.53;21.53;;;22.00;1.00;;;;;;4928572;29;20433;-57
2021/06/24 10:29:52;;;;;;;23.23;21.23;;;21.90;1.00;;;;;;4929158;29;20426;-56
2021/06/24 10:32:37;;;;;;;23.43;21.53;;;21.90;1.00;;;;;;4933246;29;20517;-54
2021/06/24 10:35:07;;;;;;;24.67;22.47;;;22.00;1.00;;;;;;4931185;29;20933;-55
2021/06/24 10:37:34;;;;;;;24.23;22.23;;;21.80;1.00;;;;;;4931746;29;20403;-56
2021/06/24 10:40:30;;;;;;;23.73;21.63;;;21.80;1.00;;;;;;4927505;29;21215;-57
2021/06/24 10:42:57;;;;;;;24.73;22.53;;;21.80;1.00;;;;;;4913633;29;21118;-57
2021/06/24 10:45:25;;;;;;;23.00;21.00;;;21.90;1.00;;;;;;4911893;29;20920;-56
2021/06/24 10:47:54;;;;;;;24.13;21.97;;;22.00;1.00;;;;;;4915451;29;20968;-56
2021/06/24 10:50:32;;;;;;;23.80;21.80;;;22.10;1.00;;;;;;4912967;29;20464;-57
2021/06/24 10:53:04;;;;;;;24.00;22.10;;;22.00;1.00;;;;;;4913518;29;20995;-55
2021/06/24 10:55:37;;;;;;;25.23;22.80;;;22.00;1.00;;;;;;4913483;29;20434;-56
2021/06/24 10:58:12;;;;;;;25.53;23.37;;;22.00;1.00;;;;;;4932215;29;20418;-56
2021/06/24 11:00:42;;;;;;;23.50;21.20;;;21.70;1.00;;;;;;4929605;29;20876;-57
2021/06/24 11:03:09;;;;;;;24.57;22.20;;;21.70;1.00;;;;;;4939700;29;20892;-57
2021/06/24 11:05:36;;;;;;;24.83;22.73;;;21.70;1.00;;;;;;4932298;29;20865;-57
2021/06/24 11:08:16;;;;;;;23.97;21.97;;;21.70;1.00;;;;;;4922484;29;20929;-57
2021/06/24 11:11:06;;;;;;;24.03;21.83;;;21.80;1.00;;;;;;4921775;29;20422;-56
2021/06/24 11:13:35;;;;;;;24.30;22.30;;;21.90;1.00;;;;;;4919689;29;20904;-57
2021/06/24 11:16:04;;;;;;;23.27;21.27;;;22.00;1.00;;;;;;4912002;29;20869;-55
2021/06/24 11:18:36;;;;;;;22.33;20.53;;;22.10;1.00;;;;;;4923976;29;20827;-57
2021/06/24 11:21:03;;;;;;;23.40;21.40;;;22.30;1.00;;;;;;4916504;29;20931;-57
2021/06/24 11:23:37;;;;;;;22.97;21.10;;;22.70;1.00;;;;;;4913594;29;20437;-57
2021/06/24 11:26:05;;;;;;;22.97;20.90;;;23.10;1.00;;;;;;4913193;29;20836;-57
2021/06/24 11:29:04;;;;;;;23.87;21.80;;;23.20;1.00;;;;;;4922640;29;20520;-57
2021/06/24 11:36:53;;;;;;;23.67;21.67;;;23.40;1.00;;;;;;4915507;29;20434;-54
2021/06/24 11:39:27;;;;;;;22.93;21.13;;;23.70;1.00;;;;;;4912724;29;21122;-55
2021/06/24 11:41:54;;;;;;;22.77;21.07;;;24.00;1.00;;;;;;4911025;29;20951;-57
2021/06/24 11:44:36;;;;;;;22.00;20.27;;;24.20;1.00;;;;;;4912454;29;20963;-56
2021/06/24 11:47:09;;;;;;;24.50;22.50;;;24.30;1.00;;;;;;4916301;29;20811;-56
2021/06/24 12:01:19;;;;;;;19.90;18.30;;;25.90;1.00;;;;;;4924951;29;20563;-58
2021/06/24 12:03:48;;;;;;;17.77;16.57;;;26.50;1.00;;;;;;4930041;29;20520;-59
2021/06/24 12:06:14;;;;;;;18.80;17.50;;;27.70;99.90;;;;;;4913755;29;20542;-59
2021/06/24 12:08:39;;;;;;;16.97;15.90;;;28.60;99.90;;;;;;4912465;29;20517;-59
2021/06/24 12:11:12;;;;;;;16.40;15.30;;;28.80;1.00;;;;;;4912269;29;20503;-59
2021/06/24 12:13:45;;;;;;;17.27;16.03;;;29.10;99.90;;;;;;4913163;29;20178;-58
2021/06/24 12:16:12;;;;;;;16.87;15.60;;;29.90;81.40;;;;;;4912566;29;20421;-59
2021/06/24 12:18:38;;;;;;;18.10;16.80;;;30.10;1.00;;;;;;4911736;29;20896;-59
2021/06/24 12:21:15;;;;;;;16.80;15.70;;;29.80;1.00;;;;;;4912558;29;20546;-59
2021/06/24 12:23:50;;;;;;;16.87;15.77;;;29.50;1.00;;;;;;4920775;29;20186;-59
2021/06/24 12:26:19;;;;;;;16.60;15.47;;;29.10;1.00;;;;;;4912228;29;20430;-59
2021/06/24 12:28:44;;;;;;;17.00;15.77;;;28.50;99.90;;;;;;4916986;29;20516;-58
2021/06/24 12:31:37;;;;;;;15.50;14.40;;;28.10;1.00;;;;;;4922977;29;20458;-57
2021/06/24 12:34:05;;;;;;;15.33;14.30;;;28.00;99.90;;;;;;4917058;29;20626;-59
2021/06/24 12:36:32;;;;;;;16.23;15.00;;;28.40;1.00;;;;;;4917355;29;20536;-59
2021/06/24 12:38:58;;;;;;;15.73;14.73;;;29.10;1.00;;;;;;4911216;29;20517;-58
2021/06/24 12:41:28;;;;;;;14.80;13.80;;;29.20;99.90;;;;;;4910971;29;20488;-58
2021/06/24 12:44:03;;;;;;;14.67;13.77;;;30.10;1.00;;;;;;4914086;29;20182;-58
2021/06/24 12:46:32;;;;;;;15.57;14.47;;;30.70;1.00;;;;;;4912285;29;20442;-58
2021/06/24 12:49:03;;;;;;;15.70;14.70;;;31.10;99.90;;;;;;4930054;29;20436;-59